createdAt,value
2023-05-05T00:00:53.590Z,8.30
2023-05-05T00:02:27.085Z,11.23
2023-05-05T00:04:00.602Z,8.20
2023-05-05T00:05:34.423Z,9.03
2023-05-05T00:07:07.846Z,7.73
2023-05-05T00:08:41.250Z,7.23
2023-05-05T00:10:13.640Z,8.17
2023-05-05T00:11:47.040Z,8.40
2023-05-05T00:13:20.689Z,8.67
2023-05-05T00:14:54.090Z,7.33
2023-05-05T00:16:27.522Z,7.30
2023-05-05T00:18:01.048Z,8.90
2023-05-05T00:19:34.451Z,7.73
2023-05-05T00:21:09.238Z,8.33
2023-05-05T00:22:41.649Z,8.37
2023-05-05T00:24:15.056Z,10.60
2023-05-05T00:25:47.517Z,7.60
2023-05-05T00:27:20.924Z,7.90
2023-05-05T00:28:54.279Z,10.23
2023-05-05T00:30:27.734Z,9.23
2023-05-05T00:32:01.514Z,8.90
2023-05-05T00:33:34.910Z,8.70
2023-05-05T00:35:07.510Z,8.63
2023-05-05T00:36:42.504Z,10.27
2023-05-05T00:38:14.898Z,8.57
2023-05-05T00:39:48.375Z,7.97
2023-05-05T00:41:20.761Z,7.97
2023-05-05T00:42:54.209Z,10.37
2023-05-05T00:44:37.548Z,8.60
2023-05-05T00:46:20.886Z,9.27
2023-05-05T00:47:55.104Z,9.17
2023-05-05T00:49:28.582Z,8.80
2023-05-05T00:51:02.039Z,8.37
2023-05-05T00:52:37.469Z,10.63
2023-05-05T00:54:10.886Z,9.43
2023-05-05T00:55:44.402Z,8.17
2023-05-05T00:57:16.985Z,11.13
2023-05-05T00:58:50.438Z,9.10
2023-05-05T01:00:24.139Z,8.60
2023-05-05T01:01:57.689Z,10.03
2023-05-05T01:03:31.292Z,7.63
2023-05-05T01:05:05.736Z,8.67
2023-05-05T01:06:46.168Z,8.07
2023-05-05T01:08:26.706Z,8.53
2023-05-05T01:10:17.983Z,9.57
2023-05-05T01:11:57.704Z,8.60
2023-05-05T01:13:34.142Z,7.03
2023-05-05T01:15:11.554Z,8.87
2023-05-05T01:16:50.570Z,7.50
2023-05-05T01:18:29.361Z,8.67
2023-05-05T01:20:10.477Z,12.03
2023-05-05T01:21:46.737Z,7.40
2023-05-05T01:23:28.982Z,7.63
2023-05-05T01:25:11.747Z,9.03
2023-05-05T01:27:00.258Z,8.40
2023-05-05T01:28:40.411Z,7.40
2023-05-05T01:30:22.472Z,9.70
2023-05-05T01:31:59.146Z,7.43
2023-05-05T01:33:35.045Z,7.47
2023-05-05T01:35:10.998Z,8.83
2023-05-05T01:36:46.259Z,7.13
2023-05-05T01:38:23.151Z,8.40
2023-05-05T01:39:59.329Z,8.53
2023-05-05T01:41:35.139Z,9.87
2023-05-05T01:43:09.966Z,7.80
2023-05-05T01:44:44.428Z,6.40
2023-05-05T01:46:18.307Z,7.37
2023-05-05T01:47:55.834Z,7.77
2023-05-05T01:49:28.678Z,7.03
2023-05-05T01:51:02.974Z,9.03
2023-05-05T01:52:37.603Z,11.90
2023-05-05T01:54:10.502Z,10.20
2023-05-05T01:55:44.737Z,7.60
2023-05-05T01:57:18.493Z,8.67
2023-05-05T01:58:51.484Z,10.27
2023-05-05T02:00:26.963Z,8.47
2023-05-05T02:02:00.474Z,9.13
2023-05-05T02:03:36.312Z,7.90
2023-05-05T02:05:10.494Z,8.27
2023-05-05T02:06:43.949Z,8.63
2023-05-05T02:08:17.773Z,7.30
2023-05-05T02:09:51.730Z,10.37
2023-05-05T02:11:25.229Z,9.57
2023-05-05T02:12:59.327Z,9.10
2023-05-05T02:14:33.099Z,8.80
2023-05-05T02:16:08.485Z,10.10
2023-05-05T02:17:42.686Z,10.07
2023-05-05T02:19:16.848Z,8.60
2023-05-05T02:20:50.553Z,11.00
2023-05-05T02:22:23.990Z,10.23
2023-05-05T02:23:57.430Z,14.80
2023-05-05T02:25:34.126Z,11.67
2023-05-05T02:27:08.134Z,9.23
2023-05-05T02:28:42.720Z,11.40
2023-05-05T02:30:18.065Z,10.33
2023-05-05T02:31:53.977Z,9.87
2023-05-05T02:33:34.625Z,8.27
2023-05-05T02:35:12.453Z,12.53
2023-05-05T02:36:49.603Z,9.13
2023-05-05T02:38:25.778Z,7.57
2023-05-05T02:40:01.957Z,9.60
2023-05-05T02:41:40.232Z,10.83
2023-05-05T02:43:23.748Z,9.30
2023-05-05T02:44:58.788Z,11.20
2023-05-05T02:46:33.124Z,10.77
2023-05-05T02:48:07.036Z,9.57
2023-05-05T02:49:43.806Z,7.87
2023-05-05T02:51:18.532Z,7.20
2023-05-05T02:52:51.051Z,7.43
2023-05-05T02:54:28.046Z,8.37
2023-05-05T02:56:07.632Z,10.27
2023-05-05T02:57:49.352Z,9.20
2023-05-05T02:59:25.047Z,8.43
2023-05-05T03:01:05.068Z,8.10
2023-05-05T03:02:42.823Z,8.17
2023-05-05T03:04:19.202Z,7.63
2023-05-05T03:06:02.507Z,7.47
2023-05-05T03:07:39.299Z,10.57
2023-05-05T03:09:14.944Z,9.13
2023-05-05T03:10:55.723Z,9.53
2023-05-05T03:12:30.043Z,8.00
2023-05-05T03:14:19.755Z,9.30
2023-05-05T03:15:55.732Z,8.77
2023-05-05T03:17:32.023Z,9.50
2023-05-05T03:19:06.487Z,12.10
2023-05-05T03:20:40.642Z,11.93
2023-05-05T03:22:15.900Z,12.70
2023-05-05T03:23:54.091Z,12.57
2023-05-05T03:25:43.035Z,9.03
2023-05-05T03:27:18.102Z,9.10
2023-05-05T03:28:51.484Z,11.57
2023-05-05T03:30:34.866Z,9.13
2023-05-05T03:32:08.632Z,9.93
2023-05-05T03:33:42.285Z,11.57
2023-05-05T03:35:16.151Z,10.37
2023-05-05T03:36:49.657Z,9.97
2023-05-05T03:38:23.275Z,8.00
2023-05-05T03:39:57.991Z,11.33
2023-05-05T03:41:31.400Z,8.97
2023-05-05T03:43:04.819Z,11.50
2023-05-05T03:44:38.962Z,12.13
2023-05-05T03:46:11.871Z,9.27
2023-05-05T03:47:45.655Z,10.10
2023-05-05T03:49:19.322Z,11.27
2023-05-05T03:50:54.921Z,10.50
2023-05-05T03:52:30.276Z,10.27
2023-05-05T03:54:04.073Z,11.73
2023-05-05T03:55:39.142Z,11.20
2023-05-05T03:57:12.570Z,11.23
2023-05-05T03:58:44.996Z,10.27
2023-05-05T04:00:19.871Z,11.93
2023-05-05T04:01:52.345Z,10.77
2023-05-05T04:03:25.879Z,10.80
2023-05-05T04:04:58.685Z,9.40
2023-05-05T04:06:32.615Z,9.13
2023-05-05T04:08:06.488Z,10.87
2023-05-05T04:09:44.366Z,9.73
2023-05-05T04:11:19.883Z,10.33
2023-05-05T04:12:53.284Z,11.90
2023-05-05T04:14:26.846Z,11.63
2023-05-05T04:16:00.673Z,8.33
2023-05-05T04:17:34.168Z,12.47
2023-05-05T04:19:10.978Z,11.40
2023-05-05T04:20:44.650Z,9.90
2023-05-05T04:22:18.674Z,9.50
2023-05-05T04:23:52.839Z,7.60
2023-05-05T04:25:27.816Z,9.47
2023-05-05T04:27:03.173Z,10.23
2023-05-05T04:28:37.052Z,9.90
2023-05-05T04:30:10.745Z,10.47
2023-05-05T04:31:46.295Z,10.83
2023-05-05T04:33:18.923Z,10.27
2023-05-05T04:34:54.445Z,9.63
2023-05-05T04:36:28.658Z,7.80
2023-05-05T04:38:02.044Z,9.17
2023-05-05T04:39:35.602Z,8.30
2023-05-05T04:41:10.003Z,9.00
2023-05-05T04:42:46.726Z,8.63
2023-05-05T04:44:20.172Z,9.43
2023-05-05T04:45:54.442Z,9.87
2023-05-05T04:47:29.891Z,8.50
2023-05-05T04:49:05.125Z,9.77
2023-05-05T04:50:39.196Z,10.20
2023-05-05T04:52:14.033Z,8.47
2023-05-05T04:53:47.489Z,8.63
2023-05-05T04:55:21.076Z,9.87
2023-05-05T04:56:54.532Z,10.00
2023-05-05T04:58:29.429Z,6.70
2023-05-05T05:00:04.599Z,7.03
2023-05-05T05:01:38.723Z,9.23
2023-05-05T05:03:12.365Z,10.60
2023-05-05T05:04:45.856Z,8.77
2023-05-05T05:06:19.243Z,9.03
2023-05-05T05:07:52.616Z,9.33
2023-05-05T05:09:26.002Z,9.63
2023-05-05T05:11:00.821Z,9.27
2023-05-05T05:12:34.285Z,9.70
2023-05-05T05:14:09.078Z,10.87
2023-05-05T05:15:42.899Z,9.97
2023-05-05T05:17:16.405Z,10.40
2023-05-05T05:18:50.233Z,9.83
2023-05-05T05:20:23.658Z,10.07
2023-05-05T05:21:57.082Z,10.17
2023-05-05T05:23:30.689Z,11.73
2023-05-05T05:25:04.178Z,8.63
2023-05-05T05:26:37.844Z,9.03
2023-05-05T05:28:11.156Z,10.00
2023-05-05T05:29:52.330Z,11.80
2023-05-05T05:31:25.781Z,10.93
2023-05-05T05:32:59.538Z,10.50
2023-05-05T05:34:32.935Z,10.47
2023-05-05T05:36:06.955Z,12.77
2023-05-05T05:37:40.344Z,8.03
2023-05-05T05:39:14.166Z,11.17
2023-05-05T05:40:47.529Z,10.03
2023-05-05T05:42:21.389Z,8.70
2023-05-05T05:43:55.010Z,9.73
2023-05-05T05:45:30.095Z,10.70
2023-05-05T05:47:03.540Z,11.93
2023-05-05T05:48:37.548Z,7.97
2023-05-05T05:50:11.319Z,7.83
2023-05-05T05:51:44.829Z,7.37
2023-05-05T05:53:19.075Z,8.07
2023-05-05T05:54:52.630Z,7.93
2023-05-05T05:56:26.022Z,7.53
2023-05-05T05:57:59.524Z,11.63
2023-05-05T05:59:33.148Z,7.60
2023-05-05T06:01:08.056Z,7.67
2023-05-05T06:02:42.436Z,6.97
2023-05-05T06:04:19.360Z,6.47
2023-05-05T06:05:52.835Z,8.37
2023-05-05T06:07:26.924Z,7.57
2023-05-05T06:09:00.513Z,8.83
2023-05-05T06:10:33.601Z,6.63
2023-05-05T06:12:11.899Z,8.80
2023-05-05T06:13:45.386Z,6.93
2023-05-05T06:15:18.978Z,8.83
2023-05-05T06:16:53.906Z,7.73
2023-05-05T06:18:28.931Z,9.47
2023-05-05T06:20:02.770Z,7.53
2023-05-05T06:21:36.269Z,8.63
2023-05-05T06:23:09.731Z,11.00
2023-05-05T06:24:48.659Z,9.10
2023-05-05T06:26:22.700Z,7.20
2023-05-05T06:27:56.129Z,7.47
2023-05-05T06:29:29.659Z,9.57
2023-05-05T06:31:03.102Z,5.30
2023-05-05T06:32:38.104Z,7.90
2023-05-05T06:34:11.507Z,6.53
2023-05-05T06:35:44.967Z,7.33
2023-05-05T06:37:18.325Z,7.23
2023-05-05T06:38:51.812Z,6.70
2023-05-05T06:40:25.163Z,6.40
2023-05-05T06:41:58.616Z,6.57
2023-05-05T06:43:31.960Z,8.47
2023-05-05T06:45:08.203Z,6.30
2023-05-05T06:46:43.616Z,8.00
2023-05-05T06:48:18.452Z,6.13
2023-05-05T06:49:51.871Z,8.97
2023-05-05T06:51:26.496Z,6.50
2023-05-05T06:52:59.864Z,7.00
2023-05-05T06:54:33.220Z,7.87
2023-05-05T06:56:06.943Z,10.37
2023-05-05T06:57:40.299Z,7.93
2023-05-05T06:59:13.750Z,8.33
2023-05-05T07:00:47.146Z,6.70
2023-05-05T07:02:20.872Z,9.00
2023-05-05T07:03:56.147Z,4.60
2023-05-05T07:05:29.555Z,6.00
2023-05-05T07:07:02.962Z,7.43
2023-05-05T07:08:36.371Z,6.13
2023-05-05T07:10:10.586Z,9.60
2023-05-05T07:11:44.029Z,6.37
2023-05-05T07:13:17.852Z,7.37
2023-05-05T07:14:51.384Z,6.40
2023-05-05T07:16:27.001Z,8.10
2023-05-05T07:18:00.471Z,5.50
2023-05-05T07:19:35.245Z,5.13
2023-05-05T07:21:08.664Z,5.50
2023-05-05T07:22:42.261Z,6.27
2023-05-05T07:24:15.722Z,3.93
2023-05-05T07:25:49.121Z,5.70
2023-05-05T07:27:22.645Z,5.07
2023-05-05T07:28:57.287Z,6.97
2023-05-05T07:30:30.870Z,6.17
2023-05-05T07:32:04.278Z,8.10
2023-05-05T07:33:37.721Z,5.80
2023-05-05T07:35:12.511Z,5.77
2023-05-05T07:36:46.080Z,5.10
2023-05-05T07:38:19.425Z,5.67
2023-05-05T07:39:52.983Z,5.57
2023-05-05T07:41:26.375Z,5.57
2023-05-05T07:42:59.760Z,5.67
2023-05-05T07:44:33.127Z,6.70
2023-05-05T07:46:06.606Z,5.30
2023-05-05T07:47:40.554Z,5.13
2023-05-05T07:49:14.126Z,6.47
2023-05-05T07:50:48.883Z,8.20
2023-05-05T07:52:33.160Z,4.77
2023-05-05T07:54:11.035Z,5.43
2023-05-05T07:55:44.432Z,5.47
2023-05-05T07:57:18.222Z,4.67
2023-05-05T07:58:51.590Z,4.90
2023-05-05T08:00:25.219Z,8.03
2023-05-05T08:01:58.638Z,5.30
2023-05-05T08:03:32.129Z,6.37
2023-05-05T08:05:05.888Z,8.70
2023-05-05T08:06:40.872Z,5.57
2023-05-05T08:08:14.265Z,8.23
2023-05-05T08:09:47.745Z,6.27
2023-05-05T08:11:21.685Z,4.93
2023-05-05T08:12:55.467Z,5.97
2023-05-05T08:14:28.896Z,4.20
2023-05-05T08:16:02.357Z,9.10
2023-05-05T08:17:46.040Z,4.57
2023-05-05T08:19:28.841Z,5.63
2023-05-05T08:21:03.949Z,7.07
2023-05-05T08:22:38.794Z,8.73
2023-05-05T08:24:12.264Z,6.37
2023-05-05T08:25:45.630Z,5.73
2023-05-05T08:27:19.007Z,4.93
2023-05-05T08:28:55.100Z,8.10
2023-05-05T08:30:28.506Z,8.00
2023-05-05T08:32:01.928Z,6.30
2023-05-05T08:33:35.475Z,6.43
2023-05-05T08:35:09.245Z,4.37
2023-05-05T08:36:42.913Z,6.43
2023-05-05T08:38:19.055Z,7.97
2023-05-05T08:39:52.433Z,5.37
2023-05-05T08:41:26.212Z,6.60
2023-05-05T08:42:59.656Z,5.40
2023-05-05T08:44:33.040Z,6.93
2023-05-05T08:46:07.236Z,5.20
2023-05-05T08:47:41.975Z,6.37
2023-05-05T08:49:16.803Z,4.90
2023-05-05T08:50:51.819Z,7.20
2023-05-05T08:52:25.868Z,4.13
2023-05-05T08:54:04.034Z,4.10
2023-05-05T08:55:37.744Z,5.13
2023-05-05T08:57:11.755Z,6.33
2023-05-05T08:58:46.531Z,7.77
2023-05-05T09:00:20.783Z,5.33
2023-05-05T09:01:55.173Z,5.03
2023-05-05T09:03:29.540Z,4.37
2023-05-05T09:05:05.326Z,6.17
2023-05-05T09:06:38.909Z,6.73
2023-05-05T09:08:13.231Z,6.07
2023-05-05T09:09:48.117Z,5.43
2023-05-05T09:11:21.554Z,6.20
2023-05-05T09:12:55.008Z,5.23
2023-05-05T09:14:28.387Z,4.27
2023-05-05T09:16:01.787Z,5.20
2023-05-05T09:17:35.142Z,4.97
2023-05-05T09:19:08.603Z,4.50
2023-05-05T09:20:42.515Z,4.67
2023-05-05T09:22:16.053Z,4.90
2023-05-05T09:24:09.404Z,5.17
2023-05-05T09:25:46.851Z,8.17
2023-05-05T09:27:23.629Z,4.37
2023-05-05T09:28:57.108Z,5.47
2023-05-05T09:30:30.642Z,5.53
2023-05-05T09:32:08.899Z,5.33
2023-05-05T09:33:43.083Z,3.20
2023-05-05T09:35:16.720Z,4.40
2023-05-05T09:36:50.243Z,4.70
2023-05-05T09:38:24.353Z,5.93
2023-05-05T09:39:58.067Z,3.97
2023-05-05T09:41:39.845Z,4.57
2023-05-05T09:43:13.228Z,4.00
2023-05-05T09:44:46.747Z,5.53
2023-05-05T09:46:20.209Z,6.13
2023-05-05T09:47:59.159Z,4.67
2023-05-05T09:49:33.870Z,4.90
2023-05-05T09:51:07.313Z,4.63
2023-05-05T09:52:40.700Z,4.47
2023-05-05T09:54:23.664Z,5.60
2023-05-05T09:55:57.443Z,3.03
2023-05-05T09:57:32.825Z,5.00
2023-05-05T09:59:13.006Z,6.13
2023-05-05T10:00:46.522Z,4.03
2023-05-05T10:02:20.028Z,8.13
2023-05-05T10:03:53.604Z,15.80
2023-05-05T10:05:27.179Z,4.50
2023-05-05T10:07:00.817Z,4.30
2023-05-05T10:08:34.376Z,3.87
2023-05-05T10:10:08.174Z,6.70
2023-05-05T10:11:43.037Z,4.60
2023-05-05T10:13:20.006Z,4.43
2023-05-05T10:14:54.340Z,4.33
2023-05-05T10:16:29.207Z,7.50
2023-05-05T10:18:07.382Z,4.77
2023-05-05T10:19:42.433Z,5.53
2023-05-05T10:21:18.787Z,5.13
2023-05-05T10:22:53.278Z,4.70
2023-05-05T10:24:29.035Z,3.93
2023-05-05T10:26:04.720Z,4.13
2023-05-05T10:27:41.734Z,6.27
2023-05-05T10:29:18.805Z,5.63
2023-05-05T10:30:54.161Z,3.53
2023-05-05T10:32:53.989Z,4.03
2023-05-05T10:34:25.798Z,3.33
2023-05-05T10:36:01.209Z,4.97
2023-05-05T10:37:34.797Z,3.60
2023-05-05T10:39:09.429Z,7.07
2023-05-05T10:40:46.419Z,3.33
2023-05-05T10:42:21.197Z,3.83
2023-05-05T10:43:54.916Z,3.77
2023-05-05T10:45:29.736Z,3.47
2023-05-05T10:47:03.831Z,3.47
2023-05-05T10:48:40.062Z,3.83
2023-05-05T10:50:17.533Z,3.67
2023-05-05T10:51:56.785Z,3.80
2023-05-05T10:53:34.213Z,5.10
2023-05-05T10:55:12.121Z,3.93
2023-05-05T10:56:45.637Z,4.23
2023-05-05T10:58:38.534Z,6.90
2023-05-05T11:00:35.211Z,3.77
2023-05-05T11:02:23.573Z,3.20
2023-05-05T11:04:12.300Z,4.90
2023-05-05T11:06:00.575Z,6.20
2023-05-05T11:07:35.480Z,4.73
2023-05-05T11:09:23.705Z,3.90
2023-05-05T11:10:57.128Z,5.50
2023-05-05T11:12:29.869Z,3.03
2023-05-05T11:14:18.083Z,6.33
2023-05-05T11:15:54.155Z,4.13
2023-05-05T11:17:46.565Z,5.47
2023-05-05T11:19:38.713Z,4.10
2023-05-05T11:21:19.204Z,3.90
2023-05-05T11:23:18.459Z,4.87
2023-05-05T11:24:53.292Z,2.60
2023-05-05T11:26:45.488Z,2.90
2023-05-05T11:28:19.542Z,5.40
2023-05-05T11:30:09.502Z,3.97
2023-05-05T11:31:43.082Z,5.73
2023-05-05T11:33:24.860Z,6.03
2023-05-05T11:34:58.252Z,4.20
2023-05-05T11:36:49.691Z,2.93
2023-05-05T11:38:25.649Z,4.40
2023-05-05T11:40:11.986Z,2.77
2023-05-05T11:41:50.180Z,2.73
2023-05-05T11:43:23.614Z,3.40
2023-05-05T11:44:57.048Z,4.57
2023-05-05T11:46:30.520Z,4.00
2023-05-05T11:48:22.629Z,3.63
2023-05-05T11:49:55.629Z,5.07
2023-05-05T11:51:30.144Z,4.53
2023-05-05T11:53:03.578Z,2.43
2023-05-05T11:54:36.718Z,4.80
2023-05-05T11:56:12.668Z,4.03
2023-05-05T11:57:46.084Z,3.87
2023-05-05T11:59:19.413Z,3.47
2023-05-05T12:00:53.300Z,5.93
2023-05-05T12:02:27.954Z,5.70
2023-05-05T12:04:01.658Z,4.00
2023-05-05T12:05:36.958Z,3.13
2023-05-05T12:07:16.001Z,5.10
2023-05-05T12:08:49.386Z,5.47
2023-05-05T12:10:24.913Z,3.83
2023-05-05T12:12:01.171Z,2.70
2023-05-05T12:13:34.876Z,4.00
2023-05-05T12:15:09.248Z,3.10
2023-05-05T12:16:42.698Z,3.10
2023-05-05T12:18:22.479Z,3.27
2023-05-05T12:19:56.326Z,5.67
2023-05-05T12:21:29.673Z,3.33
2023-05-05T12:23:03.958Z,4.97
2023-05-05T12:24:37.342Z,5.57
2023-05-05T12:26:25.032Z,3.93
2023-05-05T12:27:59.756Z,5.33
2023-05-05T12:29:33.114Z,4.83
2023-05-05T12:31:06.560Z,3.50
2023-05-05T12:32:40.173Z,4.20
2023-05-05T12:34:13.787Z,3.57
2023-05-05T12:35:47.190Z,3.40
2023-05-05T12:37:20.651Z,2.73
2023-05-05T12:38:54.066Z,4.80
2023-05-05T12:40:42.309Z,4.13
2023-05-05T12:42:15.838Z,4.87
2023-05-05T12:43:56.150Z,3.60
2023-05-05T12:45:29.568Z,3.93
2023-05-05T12:47:02.928Z,2.87
2023-05-05T12:48:37.886Z,5.13
2023-05-05T12:50:11.643Z,4.93
2023-05-05T12:51:54.705Z,4.10
2023-05-05T12:53:28.216Z,2.53
2023-05-05T12:55:01.598Z,4.40
2023-05-05T12:56:35.895Z,4.00
2023-05-05T12:58:09.335Z,4.77
2023-05-05T12:59:44.170Z,3.53
2023-05-05T13:01:17.654Z,5.00
2023-05-05T13:02:51.366Z,7.23
2023-05-05T13:04:25.708Z,5.90
2023-05-05T13:05:59.035Z,4.53
2023-05-05T13:07:32.433Z,4.03
2023-05-05T13:09:06.011Z,4.77
2023-05-05T13:10:41.454Z,3.93
2023-05-05T13:12:15.088Z,5.20
2023-05-05T13:13:48.463Z,4.47
2023-05-05T13:15:23.185Z,6.27
2023-05-05T13:16:56.547Z,3.23
2023-05-05T13:18:29.891Z,2.77
2023-05-05T13:20:03.351Z,4.23
2023-05-05T13:21:36.714Z,3.73
2023-05-05T13:23:10.097Z,5.00
2023-05-05T13:24:51.905Z,4.40
2023-05-05T13:26:26.749Z,2.93
2023-05-05T13:28:00.130Z,3.80
2023-05-05T13:29:34.098Z,3.97
2023-05-05T13:31:09.359Z,3.80
2023-05-05T13:32:42.798Z,4.33
2023-05-05T13:34:15.377Z,4.77
2023-05-05T13:35:48.745Z,3.07
2023-05-05T13:37:22.127Z,3.37
2023-05-05T13:38:55.524Z,3.13
2023-05-05T13:40:29.060Z,4.07
2023-05-05T13:42:02.431Z,4.63
2023-05-05T13:43:35.862Z,6.90
2023-05-05T13:45:09.866Z,3.80
2023-05-05T13:46:45.083Z,3.63
2023-05-05T13:48:18.530Z,4.23
2023-05-05T13:49:51.896Z,3.13
2023-05-05T13:51:25.403Z,2.93
2023-05-05T13:52:58.824Z,4.17
2023-05-05T13:54:32.311Z,4.63
2023-05-05T13:56:04.866Z,5.87
2023-05-05T13:57:38.303Z,6.03
2023-05-05T13:59:11.676Z,3.60
2023-05-05T14:00:45.147Z,5.10
2023-05-05T14:02:20.251Z,8.90
2023-05-05T14:03:55.586Z,4.27
2023-05-05T14:05:30.555Z,4.20
2023-05-05T14:07:04.799Z,6.50
2023-05-05T14:08:38.279Z,5.30
2023-05-05T14:10:11.821Z,3.33
2023-05-05T14:11:45.194Z,3.77
2023-05-05T14:13:18.682Z,10.47
2023-05-05T14:14:52.317Z,4.10
2023-05-05T14:16:25.721Z,4.47
2023-05-05T14:18:00.557Z,5.03
2023-05-05T14:19:34.024Z,5.43
2023-05-05T14:21:07.395Z,3.67
2023-05-05T14:22:42.197Z,3.53
2023-05-05T14:24:15.564Z,3.87
2023-05-05T14:25:48.985Z,6.80
2023-05-05T14:27:22.360Z,5.30
2023-05-05T14:28:55.892Z,3.37
2023-05-05T14:30:29.271Z,4.70
2023-05-05T14:32:02.684Z,3.43
2023-05-05T14:33:37.470Z,3.97
2023-05-05T14:35:11.042Z,3.37
2023-05-05T14:36:44.412Z,5.03
2023-05-05T14:38:17.907Z,7.07
2023-05-05T14:39:51.405Z,4.93
2023-05-05T14:41:24.783Z,3.40
2023-05-05T14:42:58.238Z,4.00
2023-05-05T14:44:31.614Z,5.10
2023-05-05T14:46:07.103Z,3.30
2023-05-05T14:47:40.720Z,4.77
2023-05-05T14:49:15.543Z,5.50
2023-05-05T14:50:49.822Z,5.23
2023-05-05T14:52:23.249Z,3.10
2023-05-05T14:53:56.615Z,3.40
2023-05-05T14:55:29.993Z,4.90
2023-05-05T14:57:03.651Z,3.10
2023-05-05T14:58:37.251Z,4.73
2023-05-05T15:00:11.290Z,2.67
2023-05-05T15:01:44.702Z,4.07
2023-05-05T15:03:18.245Z,3.50
2023-05-05T15:04:53.139Z,2.70
2023-05-05T15:06:26.541Z,4.50
2023-05-05T15:08:00.356Z,5.73
2023-05-05T15:09:33.726Z,5.47
2023-05-05T15:11:07.243Z,4.87
2023-05-05T15:12:40.748Z,6.03
2023-05-05T15:14:14.212Z,3.97
2023-05-05T15:15:48.392Z,2.57
2023-05-05T15:17:22.125Z,3.63
2023-05-05T15:18:56.667Z,3.13
2023-05-05T15:20:31.496Z,2.63
2023-05-05T15:22:04.860Z,3.83
2023-05-05T15:23:38.263Z,6.57
2023-05-05T15:25:13.216Z,3.40
2023-05-05T15:26:46.627Z,2.20
2023-05-05T15:28:20.001Z,4.70
2023-05-05T15:29:53.417Z,5.00
2023-05-05T15:31:27.475Z,4.07
2023-05-05T15:33:01.164Z,6.30
2023-05-05T15:34:34.687Z,7.67
2023-05-05T15:36:10.138Z,3.50
2023-05-05T15:37:43.482Z,6.07
2023-05-05T15:39:15.859Z,4.00
2023-05-05T15:40:50.287Z,4.53
2023-05-05T15:42:23.758Z,4.20
2023-05-05T15:43:57.165Z,3.67
2023-05-05T15:45:30.612Z,4.53
2023-05-05T15:47:04.157Z,4.33
2023-05-05T15:48:37.644Z,5.70
2023-05-05T15:50:11.318Z,4.67
2023-05-05T15:51:47.574Z,3.03
2023-05-05T15:53:21.146Z,5.83
2023-05-05T15:54:54.490Z,2.60
2023-05-05T15:56:29.238Z,4.03
2023-05-05T15:58:02.645Z,3.20
2023-05-05T15:59:36.249Z,4.13
2023-05-05T16:01:09.630Z,4.30
2023-05-05T16:02:43.179Z,4.67
2023-05-05T16:04:16.628Z,5.40
2023-05-05T16:05:50.082Z,4.83
2023-05-05T16:07:24.800Z,4.70
2023-05-05T16:08:58.708Z,7.87
2023-05-05T16:10:32.140Z,2.97
2023-05-05T16:12:05.945Z,4.57
2023-05-05T16:13:39.219Z,4.57
2023-05-05T16:15:13.118Z,5.70
2023-05-05T16:16:46.532Z,4.20
2023-05-05T16:18:19.942Z,5.77
2023-05-05T16:19:53.356Z,5.03
2023-05-05T16:21:25.794Z,2.87
2023-05-05T16:23:00.618Z,4.13
2023-05-05T16:24:34.031Z,3.70
2023-05-05T16:26:07.533Z,4.37
2023-05-05T16:27:40.893Z,3.30
2023-05-05T16:29:15.170Z,4.27
2023-05-05T16:30:48.594Z,3.87
2023-05-05T16:32:22.035Z,3.43
2023-05-05T16:33:55.735Z,3.97
2023-05-05T16:35:29.130Z,3.03
2023-05-05T16:37:02.543Z,4.27
2023-05-05T16:38:37.346Z,5.57
2023-05-05T16:40:11.395Z,4.57
2023-05-05T16:41:44.822Z,4.67
2023-05-05T16:43:19.503Z,4.00
2023-05-05T16:44:52.908Z,6.30
2023-05-05T16:46:26.368Z,4.53
2023-05-05T16:47:59.768Z,2.80
2023-05-05T16:49:33.257Z,3.63
2023-05-05T16:51:06.641Z,4.20
2023-05-05T16:52:40.070Z,3.27
2023-05-05T16:54:14.788Z,3.90
2023-05-05T16:55:51.825Z,9.00
2023-05-05T16:57:25.202Z,5.33
2023-05-05T16:58:58.636Z,3.97
2023-05-05T17:00:32.113Z,6.00
2023-05-05T17:02:04.636Z,2.63
2023-05-05T17:03:38.291Z,6.20
2023-05-05T17:05:11.824Z,4.03
2023-05-05T17:06:45.890Z,3.60
2023-05-05T17:08:19.303Z,3.37
2023-05-05T17:09:54.090Z,5.83
2023-05-05T17:11:27.483Z,3.17
2023-05-05T17:13:00.947Z,3.83
2023-05-05T17:14:35.480Z,5.60
2023-05-05T17:16:08.970Z,3.77
2023-05-05T17:17:43.197Z,4.90
2023-05-05T17:19:16.784Z,5.67
2023-05-05T17:20:51.378Z,3.73
2023-05-05T17:22:24.848Z,4.30
2023-05-05T17:23:58.248Z,4.97
2023-05-05T17:25:33.103Z,3.43
2023-05-05T17:27:06.505Z,3.27
2023-05-05T17:28:39.910Z,4.17
2023-05-05T17:30:13.695Z,3.13
2023-05-05T17:31:47.231Z,4.63
2023-05-05T17:33:22.047Z,4.77
2023-05-05T17:34:56.284Z,5.70
2023-05-05T17:36:29.650Z,5.07
2023-05-05T17:38:03.009Z,6.20
2023-05-05T17:39:36.405Z,4.43
2023-05-05T17:41:11.385Z,5.17
2023-05-05T17:42:44.768Z,3.87
2023-05-05T17:44:18.141Z,3.77
2023-05-05T17:45:51.590Z,6.73
2023-05-05T17:47:25.437Z,5.63
2023-05-05T17:48:58.849Z,5.87
2023-05-05T17:50:32.295Z,4.20
2023-05-05T17:52:05.867Z,4.00
2023-05-05T17:53:39.376Z,4.10
2023-05-05T17:55:12.941Z,5.37
2023-05-05T17:56:47.768Z,4.77
2023-05-05T17:58:21.191Z,3.87
2023-05-05T17:59:54.644Z,4.17
2023-05-05T18:01:28.539Z,4.63
2023-05-05T18:03:02.627Z,5.93
2023-05-05T18:04:37.606Z,4.70
2023-05-05T18:06:10.981Z,5.23
2023-05-05T18:07:44.497Z,5.53
2023-05-05T18:09:17.938Z,4.80
2023-05-05T18:10:51.308Z,4.23
2023-05-05T18:12:26.114Z,3.33
2023-05-05T18:13:59.526Z,4.40
2023-05-05T18:15:33.009Z,5.40
2023-05-05T18:17:06.376Z,5.87
2023-05-05T18:18:40.525Z,5.43
2023-05-05T18:20:14.002Z,9.90
2023-05-05T18:21:47.389Z,4.93
2023-05-05T18:23:20.748Z,5.30
2023-05-05T18:24:58.858Z,4.57
2023-05-05T18:26:32.268Z,5.53
2023-05-05T18:28:07.209Z,4.93
2023-05-05T18:29:40.582Z,4.73
2023-05-05T18:31:13.977Z,5.53
2023-05-05T18:32:48.734Z,5.00
2023-05-05T18:34:22.444Z,5.90
2023-05-05T18:35:56.548Z,9.10
2023-05-05T18:37:30.120Z,5.47
2023-05-05T18:39:03.558Z,7.07
2023-05-05T18:40:36.926Z,6.40
2023-05-05T18:42:10.351Z,10.90
2023-05-05T18:43:45.119Z,5.63
2023-05-05T18:45:18.491Z,6.30
2023-05-05T18:46:52.129Z,8.00
2023-05-05T18:48:26.217Z,7.47
2023-05-05T18:49:59.575Z,7.67
2023-05-05T18:51:33.174Z,4.20
2023-05-05T18:53:06.587Z,6.97
2023-05-05T18:54:40.026Z,6.60
2023-05-05T18:56:12.458Z,7.07
2023-05-05T18:57:45.853Z,6.23
2023-05-05T18:59:20.630Z,8.63
2023-05-05T19:00:54.133Z,5.80
2023-05-05T19:02:27.606Z,9.17
2023-05-05T19:04:01.023Z,7.93
2023-05-05T19:05:34.461Z,6.50
2023-05-05T19:07:08.400Z,8.03
2023-05-05T19:08:41.937Z,5.07
2023-05-05T19:10:15.304Z,4.97
2023-05-05T19:11:48.655Z,5.57
2023-05-05T19:13:22.092Z,6.20
2023-05-05T19:14:56.831Z,7.93
2023-05-05T19:16:30.394Z,4.70
2023-05-05T19:18:05.549Z,5.83
2023-05-05T19:19:39.049Z,6.70
2023-05-05T19:21:12.441Z,6.00
2023-05-05T19:22:46.314Z,7.23
2023-05-05T19:24:19.679Z,9.37
2023-05-05T19:25:53.195Z,6.23
2023-05-05T19:27:26.571Z,17.93
2023-05-05T19:28:59.991Z,7.83
2023-05-05T19:30:34.740Z,7.03
2023-05-05T19:32:08.238Z,5.87
2023-05-05T19:33:45.086Z,7.60
2023-05-05T19:35:18.484Z,5.90
2023-05-05T19:36:51.867Z,5.37
2023-05-05T19:38:25.222Z,6.93
2023-05-05T19:39:58.597Z,13.83
2023-05-05T19:41:32.628Z,6.97
2023-05-05T19:43:06.056Z,12.97
2023-05-05T19:44:39.487Z,4.30
2023-05-05T19:46:14.463Z,5.40
2023-05-05T19:47:48.127Z,8.50
2023-05-05T19:49:21.558Z,5.47
2023-05-05T19:50:54.972Z,6.23
2023-05-05T19:52:28.414Z,5.87
2023-05-05T19:54:01.816Z,7.83
2023-05-05T19:55:35.582Z,4.50
2023-05-05T19:57:09.007Z,5.37
2023-05-05T19:58:59.015Z,6.07
2023-05-05T20:00:31.533Z,6.27
2023-05-05T20:02:06.274Z,5.77
2023-05-05T20:03:39.717Z,6.43
2023-05-05T20:05:13.965Z,5.10
2023-05-05T20:06:47.397Z,6.87
2023-05-05T20:08:19.794Z,6.33
2023-05-05T20:09:53.175Z,5.00
2023-05-05T20:11:25.999Z,8.73
2023-05-05T20:12:59.414Z,6.03
2023-05-05T20:14:32.814Z,4.87
2023-05-05T20:16:05.992Z,7.50
2023-05-05T20:17:40.859Z,4.90
2023-05-05T20:19:14.304Z,7.00
2023-05-05T20:20:47.675Z,6.37
2023-05-05T20:22:21.060Z,7.67
2023-05-05T20:23:55.096Z,5.53
2023-05-05T20:25:28.528Z,6.17
2023-05-05T20:27:02.051Z,6.20
2023-05-05T20:28:35.447Z,8.00
2023-05-05T20:30:11.949Z,5.97
2023-05-05T20:31:45.414Z,5.23
2023-05-05T20:33:20.227Z,5.80
2023-05-05T20:34:53.565Z,7.30
2023-05-05T20:36:27.135Z,6.50
2023-05-05T20:38:00.953Z,6.87
2023-05-05T20:39:34.402Z,6.83
2023-05-05T20:41:07.807Z,5.77
2023-05-05T20:42:41.173Z,8.20
2023-05-05T20:44:14.647Z,7.10
2023-05-05T20:45:48.019Z,5.37
2023-05-05T20:47:21.414Z,6.47
2023-05-05T20:48:56.182Z,9.53
2023-05-05T20:50:29.564Z,7.83
2023-05-05T20:52:01.924Z,5.70
2023-05-05T20:53:35.382Z,7.57
2023-05-05T20:55:09.102Z,10.90
2023-05-05T20:56:42.492Z,7.60
2023-05-05T20:58:15.844Z,6.97